Time;durP1;ratioP1;P1;durP2;ratioP2;P2;SDS_P1;SDS_P2;PMS_P1;PMS_P2;Temp;Humidity;BMP_temperature;BMP_pressure;BME280_temperature;BME280_humidity;BME280_pressure;Samples;Min_cycle;Max_cycle;Signal;HPM_P1;HPM_P2
2022/10/13 00:01:21;;;;;;;33.63;17.05;;;;;;;9.30;83.31;100865.30;1764893;81;21229;-78
2022/10/13 00:04:27;;;;;;;33.58;16.27;;;;;;;9.24;83.69;100867.80;1764803;81;21244;-78
2022/10/13 00:07:34;;;;;;;29.82;16.42;;;;;;;9.19;83.88;100865.02;1764838;81;21192;-78
2022/10/13 00:10:44;;;;;;;29.30;16.52;;;;;;;9.13;83.92;100874.34;1763395;81;21204;-78
2022/10/13 00:13:51;;;;;;;26.10;17.17;;;;;;;9.09;84.73;100880.61;1763683;81;21166;-77
2022/10/13 00:16:59;;;;;;;28.95;16.12;;;;;;;9.12;84.31;100877.55;1765311;81;21188;-77
2022/10/13 00:20:04;;;;;;;24.63;14.43;;;;;;;8.94;84.70;100872.08;1764773;81;21173;-77
2022/10/13 00:23:12;;;;;;;23.77;14.03;;;;;;;9.02;84.46;100874.53;1764513;81;21264;-77
2022/10/13 00:26:20;;;;;;;25.05;14.45;;;;;;;9.00;84.21;100873.33;1764145;80;21558;-77
2022/10/13 00:29:28;;;;;;;27.40;13.93;;;;;;;8.84;84.48;100876.70;1764227;81;21181;-77
2022/10/13 00:32:34;;;;;;;22.80;14.30;;;;;;;8.81;84.62;100877.53;1764831;81;21220;-77
2022/10/13 00:35:41;;;;;;;23.77;13.65;;;;;;;8.80;84.67;100875.31;1764774;81;21240;-77
2022/10/13 00:38:46;;;;;;;24.65;14.33;;;;;;;8.79;84.65;100869.98;1747257;81;21204;-77
2022/10/13 00:41:53;;;;;;;25.37;13.58;;;;;;;8.73;84.83;100877.42;1764751;81;21232;-77
2022/10/13 00:45:28;;;;;;;21.45;13.05;;;;;;;8.65;85.06;100875.43;1764892;81;21125;-77
2022/10/13 00:48:36;;;;;;;23.22;13.13;;;;;;;8.53;85.54;100872.56;1763567;81;21184;-77
2022/10/13 00:51:48;;;;;;;30.40;13.70;;;;;;;8.77;84.34;100871.52;1764914;81;21181;-78
2022/10/13 00:54:55;;;;;;;33.98;16.10;;;;;;;8.75;84.26;100876.27;1764302;81;21200;-77
2022/10/13 00:58:01;;;;;;;20.85;13.28;;;;;;;8.71;84.26;100878.94;1765147;81;21180;-77
2022/10/13 01:01:06;;;;;;;23.02;13.22;;;;;;;8.51;84.70;100877.28;1763447;81;21192;-78
2022/10/13 01:04:12;;;;;;;26.12;13.88;;;;;;;8.58;84.66;100880.64;1763363;81;21743;-78
2022/10/13 01:07:18;;;;;;;28.05;13.45;;;;;;;8.62;84.55;100878.48;1764901;81;21177;-78
2022/10/13 01:10:33;;;;;;;24.47;13.08;;;;;;;8.54;84.62;100870.18;1763409;81;21517;-78
2022/10/13 01:13:59;;;;;;;23.90;11.83;;;;;;;8.64;84.04;100871.84;1764684;81;21715;-78
2022/10/13 01:17:40;;;;;;;20.70;12.47;;;;;;;8.54;84.43;100871.55;1764689;81;21185;-78
2022/10/13 01:21:25;;;;;;;25.82;11.97;;;;;;;8.50;84.65;100870.12;1764848;81;21472;-77
2022/10/13 01:24:52;;;;;;;20.82;11.78;;;;;;;8.33;84.82;100870.38;1764385;81;21177;-78
2022/10/13 01:28:29;;;;;;;30.02;12.80;;;;;;;8.39;85.02;100872.02;1769122;80;21204;-78
2022/10/13 01:32:05;;;;;;;26.00;12.73;;;;;;;8.32;85.08;100865.41;1779056;80;21165;-77
2022/10/13 01:35:38;;;;;;;28.83;12.63;;;;;;;8.22;85.33;100866.45;1778982;80;21877;-77
2022/10/13 01:38:53;;;;;;;31.35;14.00;;;;;;;7.99;86.17;100865.92;1778890;80;21180;-78
2022/10/13 01:42:04;;;;;;;23.42;12.68;;;;;;;7.87;86.62;100867.45;1779010;80;21180;-77
2022/10/13 01:45:09;;;;;;;26.30;13.10;;;;;;;7.90;86.68;100867.17;1779091;80;21185;-78
2022/10/13 01:48:15;;;;;;;27.20;13.18;;;;;;;7.98;86.11;100868.30;1777382;80;21191;-77
2022/10/13 01:51:24;;;;;;;24.32;12.43;;;;;;;7.89;86.26;100872.74;1777669;80;21196;-78
2022/10/13 01:54:31;;;;;;;26.30;12.65;;;;;;;7.90;86.32;100870.38;1779070;80;21257;-78
2022/10/13 01:57:44;;;;;;;27.73;12.05;;;;;;;7.90;86.53;100868.53;1777449;80;21723;-77
2022/10/13 02:00:54;;;;;;;21.68;11.30;;;;;;;8.06;86.07;100867.06;1777848;80;21212;-78
2022/10/13 02:04:08;;;;;;;;;;;;;;;8.01;85.80;100876.19;1781611;80;21204;-77
2022/10/13 02:07:37;;;;;;;18.85;11.15;;;;;;;7.89;86.16;100872.74;1779153;80;20214;-77
2022/10/13 02:11:21;;;;;;;23.30;11.70;;;;;;;7.79;86.63;100875.48;1753507;80;21255;-77
2022/10/13 02:14:35;;;;;;;24.25;11.93;;;;;;;7.66;86.96;100877.63;1779028;80;21180;-77
2022/10/13 02:17:42;;;;;;;24.07;10.48;;;;;;;8.04;86.06;100874.51;1777735;80;21152;-78
2022/10/13 02:20:48;;;;;;;28.20;12.85;;;;;;;8.16;84.92;100876.08;1777810;80;21188;-77
2022/10/13 02:23:54;;;;;;;24.90;12.50;;;;;;;8.05;85.07;100881.70;1777610;80;21184;-77
2022/10/13 02:27:00;;;;;;;28.40;12.80;;;;;;;7.55;86.58;100884.09;1777523;80;21762;-77
2022/10/13 02:30:06;;;;;;;24.27;13.32;;;;;;;7.60;86.37;100884.52;1768890;80;21219;-78
2022/10/13 02:33:13;;;;;;;23.32;12.43;;;;;;;8.14;84.70;100885.77;1764709;81;21236;-77
2022/10/13 02:36:19;;;;;;;25.08;12.82;;;;;;;8.17;84.13;100888.69;1763329;81;21192;-78
2022/10/13 02:39:25;;;;;;;27.32;13.03;;;;;;;7.98;84.89;100892.81;1764651;81;21292;-77
2022/10/13 02:42:34;;;;;;;33.15;12.45;;;;;;;7.90;85.49;100890.80;1764737;81;22531;-77
2022/10/13 02:45:39;;;;;;;26.65;11.97;;;;;;;7.95;85.41;100884.41;1764814;81;21781;-77
2022/10/13 02:48:44;;;;;;;27.37;11.93;;;;;;;7.87;85.24;100885.16;1764686;81;21743;-77
2022/10/13 02:51:52;;;;;;;25.37;12.33;;;;;;;7.83;85.49;100885.08;1763351;81;21189;-77
2022/10/13 02:54:59;;;;;;;25.60;10.75;;;;;;;7.62;86.24;100878.91;1764771;81;21743;-78
2022/10/13 02:58:06;;;;;;;20.48;9.65;;;;;;;7.43;86.89;100886.58;1764725;81;21177;-78
2022/10/13 03:01:18;;;;;;;21.40;9.83;;;;;;;7.37;87.47;100884.43;1763837;81;21213;-77
2022/10/13 03:04:22;;;;;;;16.27;9.40;;;;;;;7.43;86.93;100883.38;1764889;81;21720;-78
2022/10/13 03:07:29;;;;;;;21.00;10.48;;;;;;;7.49;86.21;100877.01;1764707;81;21763;-77
2022/10/13 03:10:36;;;;;;;23.30;10.98;;;;;;;7.31;86.85;100880.92;1763548;81;21236;-78
2022/10/13 03:13:41;;;;;;;23.02;11.48;;;;;;;7.20;87.44;100886.47;1764872;81;21787;-77
2022/10/13 03:16:46;;;;;;;21.73;11.85;;;;;;;7.33;86.94;100883.84;1764891;81;21177;-77
2022/10/13 03:19:52;;;;;;;23.22;12.40;;;;;;;7.12;87.58;100882.61;1764784;81;21183;-77
2022/10/13 03:22:58;;;;;;;31.45;12.05;;;;;;;7.23;87.17;100887.56;1764851;81;21225;-78
2022/10/13 03:26:05;;;;;;;24.98;11.68;;;;;;;7.26;87.13;100890.87;1764585;81;21807;-77
2022/10/13 03:29:11;;;;;;;31.90;13.40;;;;;;;7.18;87.25;100884.77;1764688;81;21181;-76
2022/10/13 03:32:17;;;;;;;31.90;14.35;;;;;;;7.41;86.54;100886.73;1763370;81;21232;-77
2022/10/13 03:35:23;;;;;;;30.48;13.83;;;;;;;7.34;86.46;100889.67;1763483;81;21188;-77
2022/10/13 03:38:29;;;;;;;27.10;14.10;;;;;;;7.25;86.76;100887.80;1764911;81;21248;-77
2022/10/13 03:41:34;;;;;;;29.15;12.58;;;;;;;7.30;86.62;100895.03;1763962;81;21177;-77
2022/10/13 03:44:40;;;;;;;23.65;12.20;;;;;;;7.35;86.26;100895.47;1764786;81;21220;-76
2022/10/13 03:47:48;;;;;;;21.20;11.15;;;;;;;7.18;87.04;100897.00;1764798;81;21185;-77
2022/10/13 03:50:54;;;;;;;25.60;11.53;;;;;;;7.30;86.12;100896.39;1764720;81;21244;-77
2022/10/13 03:54:02;;;;;;;29.80;12.13;;;;;;;7.21;86.67;100897.23;1765706;81;21149;-77
2022/10/13 03:57:10;;;;;;;27.48;11.83;;;;;;;7.08;86.98;100896.62;1764123;81;21204;-76
2022/10/13 04:00:17;;;;;;;26.35;11.60;;;;;;;6.95;87.88;100896.02;1764866;81;21185;-80
2022/10/13 04:03:23;;;;;;;30.48;12.43;;;;;;;7.24;86.55;100903.73;1764910;81;21612;-77
2022/10/13 04:06:29;;;;;;;42.23;14.05;;;;;;;7.27;86.31;100899.39;1764730;81;21181;-77
2022/10/13 04:09:35;;;;;;;39.20;14.73;;;;;;;7.46;86.00;100905.36;1764241;81;21260;-77
2022/10/13 04:12:42;;;;;;;31.87;14.00;;;;;;;7.58;85.34;100903.38;1763491;81;21216;-77
2022/10/13 04:15:48;;;;;;;35.73;13.58;;;;;;;7.50;85.46;100908.16;1764983;81;21177;-76
2022/10/13 04:19:08;;;;;;;33.58;14.85;;;;;;;7.58;85.16;100908.82;1763382;81;21180;-77
2022/10/13 04:22:14;;;;;;;32.15;15.28;;;;;;;7.59;84.81;100907.81;1763985;81;21510;-77
2022/10/13 04:25:21;;;;;;;33.45;13.88;;;;;;;7.70;84.33;100913.10;1764861;81;21181;-77
2022/10/13 04:28:27;;;;;;;37.93;15.40;;;;;;;7.62;84.76;100911.11;1763233;81;21185;-77
2022/10/13 04:31:35;;;;;;;43.02;16.25;;;;;;;7.94;83.66;100912.16;1769894;80;21224;-77
2022/10/13 04:34:40;;;;;;;43.28;18.67;;;;;;;7.87;83.80;100915.63;1779000;80;21184;-77
2022/10/13 04:37:46;;;;;;;49.27;21.25;;;;;;;7.64;84.83;100916.41;1779104;80;21184;-76
2022/10/13 04:40:52;;;;;;;46.58;20.25;;;;;;;7.76;84.69;100912.52;1778894;80;21180;-77
2022/10/13 04:44:01;;;;;;;42.70;18.57;;;;;;;7.91;84.23;100915.19;1777622;80;21204;-77
2022/10/13 04:47:06;;;;;;;45.67;20.75;;;;;;;7.80;84.64;100915.32;1778941;80;21180;-78
2022/10/13 04:50:12;;;;;;;57.83;21.52;;;;;;;7.85;84.45;100918.47;1777592;80;21176;-78
2022/10/13 04:53:19;;;;;;;49.98;21.30;;;;;;;8.06;83.80;100925.14;1777792;80;21176;-78
2022/10/13 04:56:25;;;;;;;44.90;20.12;;;;;;;8.22;83.11;100929.13;1779008;80;21714;-78
2022/10/13 04:59:30;;;;;;;42.43;19.10;;;;;;;8.32;82.67;100936.77;1777636;80;21212;-78
2022/10/13 05:02:36;;;;;;;46.20;20.08;;;;;;;8.23;82.74;100927.61;1778054;79;21251;-77
2022/10/13 05:05:43;;;;;;;44.77;18.80;;;;;;;8.43;82.14;100929.84;1807410;79;21719;-77
2022/10/13 05:08:48;;;;;;;49.27;17.98;;;;;;;8.61;81.20;100932.64;1815134;79;21522;-77
2022/10/13 05:11:54;;;;;;;46.02;17.12;;;;;;;8.62;81.26;100940.69;1812084;79;21209;-77
2022/10/13 05:15:00;;;;;;;39.48;17.37;;;;;;;8.87;80.34;100936.94;1814364;79;21172;-79
2022/10/13 05:18:07;;;;;;;46.50;16.25;;;;;;;8.93;80.26;100939.91;1806915;79;21707;-78
2022/10/13 05:21:18;;;;;;;40.25;15.60;;;;;;;9.06;79.82;100946.90;1781950;80;21203;-78
2022/10/13 05:24:35;;;;;;;37.70;16.37;;;;;;;9.15;79.09;100947.36;1781162;80;21251;-78
2022/10/13 05:27:32;;;;;;;38.13;15.88;;;;;;;9.15;78.91;100950.09;1796181;79;21734;-77
2022/10/13 05:30:37;;;;;;;45.58;17.57;;;;;;;9.17;78.95;100949.42;1787982;79;21158;-78
2022/10/13 05:33:43;;;;;;;42.50;15.88;;;;;;;9.34;78.32;100954.07;1774451;79;21209;-77
2022/10/13 05:36:49;;;;;;;30.27;14.43;;;;;;;9.40;77.62;100949.36;1774153;79;21247;-78
2022/10/13 05:39:56;;;;;;;37.63;14.68;;;;;;;9.52;77.40;100953.26;1776962;79;21182;-78
2022/10/13 05:43:01;;;;;;;30.52;12.88;;;;;;;9.52;77.77;100961.45;1767670;79;21279;-78
2022/10/13 05:46:08;;;;;;;40.90;14.65;;;;;;;9.67;77.68;100954.44;1771262;81;21184;-77
2022/10/13 05:49:13;;;;;;;31.57;13.10;;;;;;;9.72;77.16;100971.22;1776784;79;21173;-77
2022/10/13 05:52:22;;;;;;;37.05;14.28;;;;;;;9.72;77.26;100963.02;1776510;79;21193;-78
2022/10/13 05:55:28;;;;;;;35.58;14.68;;;;;;;10.04;76.60;100960.27;1769713;81;21586;-78
2022/10/13 05:58:34;;;;;;;37.05;14.55;;;;;;;10.15;76.10;100958.13;1769469;81;21534;-78
2022/10/13 06:01:42;;;;;;;33.88;14.07;;;;;;;10.15;76.25;100955.91;1769611;81;21211;-78
2022/10/13 06:04:54;;;;;;;31.60;11.68;;;;;;;10.28;76.10;100961.86;1780206;80;21173;-78
2022/10/13 06:08:00;;;;;;;37.55;13.25;;;;;;;10.38;75.08;100966.73;1775603;80;21833;-77
2022/10/13 06:11:07;;;;;;;30.37;11.53;;;;;;;10.45;74.19;100968.34;1752183;81;21194;-77
2022/10/13 06:14:07;;;;;;;32.98;12.47;;;;;;;10.54;74.11;100969.23;1768549;81;21182;-77
2022/10/13 06:17:12;;;;;;;30.10;12.35;;;;;;;10.66;73.75;100964.70;1772282;79;21210;-78
2022/10/13 06:20:18;;;;;;;28.90;11.57;;;;;;;10.72;73.48;100963.20;1781706;79;21732;-76
2022/10/13 06:23:23;;;;;;;36.42;12.95;;;;;;;10.69;74.01;100971.23;1782183;79;21197;-77
2022/10/13 06:26:29;;;;;;;26.23;12.23;;;;;;;10.81;74.36;100963.59;1773250;79;21149;-77
2022/10/13 06:29:36;;;;;;;31.17;12.43;;;;;;;10.90;74.14;100967.24;1772104;79;21222;-78
2022/10/13 06:32:41;;;;;;;31.70;11.60;;;;;;;10.99;73.98;100965.75;1777746;79;21301;-77
2022/10/13 06:35:48;;;;;;;38.88;13.10;;;;;;;11.00;74.41;100964.73;1753744;81;21216;-76
2022/10/13 06:38:53;;;;;;;39.60;11.45;;;;;;;11.20;74.14;100969.98;1754225;81;21189;-76
2022/10/13 06:41:59;;;;;;;27.62;11.85;;;;;;;11.31;73.75;100969.67;1769644;81;21145;-77
2022/10/13 06:45:05;;;;;;;32.75;11.78;;;;;;;11.44;74.05;100963.22;1766659;81;21228;-77
2022/10/13 06:48:10;;;;;;;28.57;10.45;;;;;;;11.61;72.89;100964.62;1765163;81;21200;-77
2022/10/13 06:51:17;;;;;;;36.45;12.00;;;;;;;11.85;72.74;100965.22;1765208;80;21233;-78
2022/10/13 06:54:23;;;;;;;28.62;12.13;;;;;;;12.02;71.55;100965.08;1747484;81;21719;-78
2022/10/13 06:57:29;;;;;;;23.22;10.85;;;;;;;12.10;70.21;100962.02;1752093;82;21203;-77
2022/10/13 07:00:35;;;;;;;27.15;9.95;;;;;;;12.20;69.89;100955.33;1751656;81;22467;-77
2022/10/13 07:03:41;;;;;;;32.03;11.18;;;;;;;12.26;68.96;100957.38;1757513;81;21272;-77
2022/10/13 07:06:47;;;;;;;29.67;12.15;;;;;;;12.48;68.15;100958.58;1769254;81;21180;-78
2022/10/13 07:09:52;;;;;;;32.30;12.25;;;;;;;12.60;68.82;100959.58;1742981;81;22047;-77
2022/10/13 07:12:57;;;;;;;23.42;10.48;;;;;;;12.75;68.78;100961.95;1742107;82;21181;-77
2022/10/13 07:16:04;;;;;;;27.05;10.78;;;;;;;12.90;66.25;100964.86;1746999;81;21494;-78
2022/10/13 07:19:09;;;;;;;23.50;9.33;;;;;;;13.08;64.74;100972.84;1755176;81;21168;-77
2022/10/13 07:22:15;;;;;;;21.85;8.65;;;;;;;13.17;64.54;100965.77;1717935;81;21841;-78
2022/10/13 07:25:24;;;;;;;29.12;8.63;;;;;;;13.33;64.54;100964.91;1718004;82;21361;-76
2022/10/13 07:28:33;;;;;;;27.85;9.58;;;;;;;13.41;63.60;100970.38;1744067;82;21818;-77
2022/10/13 07:31:40;;;;;;;19.57;8.50;;;;;;;13.46;62.44;100965.19;1761055;81;21180;-77
2022/10/13 07:34:46;;;;;;;18.48;8.80;;;;;;;13.29;62.84;100967.14;1769310;80;21343;-77
2022/10/13 07:37:52;;;;;;;19.52;8.28;;;;;;;13.47;62.39;100968.27;1768470;79;21178;-77
2022/10/13 07:40:58;;;;;;;17.75;7.67;;;;;;;13.68;61.03;100970.90;1795477;79;21193;-77
2022/10/13 07:44:04;;;;;;;25.05;8.43;;;;;;;13.96;60.53;100976.74;1770738;81;21848;-77
2022/10/13 07:47:10;;;;;;;23.70;7.50;;;;;;;13.80;60.78;100963.97;1772808;79;21756;-77
2022/10/13 07:50:17;;;;;;;17.87;8.10;;;;;;;13.94;60.14;100971.44;1771933;79;22030;-77
2022/10/13 07:53:22;;;;;;;20.25;8.18;;;;;;;14.04;59.02;100973.94;1781304;79;21182;-77
2022/10/13 07:56:28;;;;;;;25.02;7.75;;;;;;;14.04;58.98;100963.80;1766791;81;21195;-76
2022/10/13 07:59:34;;;;;;;19.55;8.15;;;;;;;14.11;59.53;100961.67;1766350;81;21260;-76
2022/10/13 08:02:39;;;;;;;24.40;6.30;;;;;;;13.92;58.78;100969.37;1766751;81;21190;-76
2022/10/13 08:05:46;;;;;;;18.50;7.67;;;;;;;14.17;58.38;100974.72;1777735;79;21217;-77
2022/10/13 08:08:52;;;;;;;16.20;6.87;;;;;;;14.22;57.89;100949.73;1772898;79;21213;-78
2022/10/13 08:11:52;;;;;;;19.02;7.12;;;;;;;14.32;58.31;100961.34;1790747;79;21206;-77
2022/10/13 08:15:00;;;;;;;19.98;7.12;;;;;;;14.19;59.68;100961.63;1768364;79;21194;-78
2022/10/13 08:18:06;;;;;;;24.05;7.90;;;;;;;14.33;60.17;100945.67;1772328;80;21194;-77
2022/10/13 08:21:12;;;;;;;21.37;6.53;;;;;;;14.44;59.18;100960.88;1767908;79;21232;-77
2022/10/13 08:24:35;;;;;;;21.30;6.08;;;;;;;14.46;58.81;100958.82;1769923;79;21150;-78
2022/10/13 08:27:40;;;;;;;20.05;7.00;;;;;;;14.66;58.45;100961.92;1771661;79;21835;-77
2022/10/13 08:30:49;;;;;;;15.98;5.85;;;;;;;14.64;61.10;100964.02;1769435;79;21739;-77
2022/10/13 08:33:54;;;;;;;20.68;6.25;;;;;;;14.53;57.71;100967.53;1779739;79;21673;-77
2022/10/13 08:37:01;;;;;;;25.10;5.75;;;;;;;14.52;56.53;100967.20;1769118;79;21169;-77
2022/10/13 08:40:07;;;;;;;21.10;5.85;;;;;;;14.59;57.49;100963.20;1777719;79;21180;-77
2022/10/13 08:43:14;;;;;;;18.62;6.58;;;;;;;14.62;58.25;100960.06;1769016;81;21150;-77
2022/10/13 08:46:21;;;;;;;16.40;5.65;;;;;;;14.76;56.20;100957.00;1770670;81;21714;-77
2022/10/13 08:49:26;;;;;;;14.83;5.00;;;;;;;14.68;56.38;100963.47;1737367;81;21157;-77
2022/10/13 08:52:37;;;;;;;15.70;5.53;;;;;;;14.87;53.72;100960.69;1779182;79;21817;-77
2022/10/13 08:55:49;;;;;;;14.13;5.85;;;;;;;15.06;52.82;100953.23;1776336;79;21232;-77
2022/10/13 08:58:57;;;;;;;11.40;3.65;;;;;;;15.25;53.23;100953.18;1720230;82;21174;-78
2022/10/13 09:02:02;;;;;;;14.07;3.58;;;;;;;15.45;49.75;100949.83;1768811;81;21202;-78
2022/10/13 09:05:09;;;;;;;7.30;2.77;;;;;;;15.45;49.28;100945.16;1742020;81;21192;-77
2022/10/13 09:08:23;;;;;;;10.50;2.67;;;;;;;15.34;49.16;100953.94;1787944;79;21795;-77
2022/10/13 09:11:29;;;;;;;10.43;3.33;;;;;;;15.44;48.30;100950.88;1778125;79;21799;-77
2022/10/13 09:14:38;;;;;;;12.55;2.50;;;;;;;15.59;47.77;100939.28;1770230;79;21318;-77
2022/10/13 09:17:46;;;;;;;9.48;2.90;;;;;;;15.71;47.47;100943.79;1769400;81;21240;-77
2022/10/13 09:20:53;;;;;;;9.63;2.90;;;;;;;15.83;45.82;100939.48;1784240;79;21221;-77
2022/10/13 09:23:58;;;;;;;7.78;2.67;;;;;;;15.81;45.58;100945.73;1758400;81;21229;-77
2022/10/13 09:27:21;;;;;;;8.03;2.90;;;;;;;15.81;46.00;100931.95;1792150;80;21902;-77
2022/10/13 09:30:37;;;;;;;10.95;2.40;;;;;;;15.94;45.60;100929.30;1797518;79;21165;-77
2022/10/13 09:33:43;;;;;;;9.95;2.70;;;;;;;16.04;45.41;100931.23;1798607;79;21308;-78
2022/10/13 09:37:07;;;;;;;11.53;2.47;;;;;;;16.12;45.46;100930.76;1767925;80;21244;-78
2022/10/13 09:40:34;;;;;;;8.88;2.58;;;;;;;16.19;45.14;100931.69;1769315;81;21165;-77
2022/10/13 09:43:55;;;;;;;8.43;2.83;;;;;;;16.25;44.45;100923.45;1774446;79;21169;-76
2022/10/13 09:47:08;;;;;;;8.43;2.75;;;;;;;16.13;44.74;100933.31;1768006;81;21334;-76
2022/10/13 09:50:25;;;;;;;13.95;2.87;;;;;;;16.23;45.03;100930.21;1768609;79;21888;-77
2022/10/13 09:53:38;;;;;;;10.00;3.10;;;;;;;16.34;44.21;100917.27;1768583;79;22096;-77
2022/10/13 09:56:52;;;;;;;11.83;2.47;;;;;;;16.32;44.46;100923.50;1769804;81;21646;-77
2022/10/13 09:59:58;;;;;;;7.72;2.47;;;;;;;16.26;43.59;100916.03;1770121;81;21176;-77
2022/10/13 10:03:25;;;;;;;12.68;2.95;;;;;;;16.39;43.37;100912.00;1776064;79;21440;-77
2022/10/13 10:06:31;;;;;;;9.70;2.62;;;;;;;16.55;43.47;100917.75;1785856;79;21225;-77
2022/10/13 10:09:49;;;;;;;9.95;2.90;;;;;;;16.64;42.31;100912.94;1797845;79;21248;-77
2022/10/13 10:12:55;;;;;;;14.30;2.90;;;;;;;16.61;42.03;100919.73;1770334;79;21201;-77
2022/10/13 10:16:13;;;;;;;8.90;2.40;;;;;;;16.53;42.67;100909.67;1769540;79;21198;-78
2022/10/13 10:19:44;;;;;;;8.60;2.83;;;;;;;16.60;43.12;100907.80;1783406;79;22025;-77
2022/10/13 10:23:11;;;;;;;10.78;3.00;;;;;;;16.73;41.39;100906.23;1767597;81;21223;-78
2022/10/13 10:26:35;;;;;;;9.90;2.80;;;;;;;16.89;41.25;100909.19;1790033;79;22460;-78
2022/10/13 10:30:09;;;;;;;7.47;2.65;;;;;;;16.99;40.24;100907.79;1779960;79;21201;-78
2022/10/13 10:33:13;;;;;;;8.48;2.60;;;;;;;17.13;40.48;100905.95;1769327;79;21187;-78
2022/10/13 10:36:15;;;;;;;8.03;2.80;;;;;;;17.18;40.71;100899.81;1774152;79;21169;-78
2022/10/13 10:39:33;;;;;;;11.40;2.83;;;;;;;17.14;41.11;100895.75;1780335;79;21173;-78
2022/10/13 10:43:21;;;;;;;10.00;2.47;;;;;;;17.25;40.63;100908.97;1785659;79;21208;-78
2022/10/13 10:46:36;;;;;;;8.63;2.95;;;;;;;17.32;40.35;100907.10;1780811;79;21249;-78
2022/10/13 10:49:43;;;;;;;7.70;2.40;;;;;;;17.38;39.75;100897.44;1783649;79;21323;-77
2022/10/13 10:53:09;;;;;;;7.20;3.08;;;;;;;17.06;39.74;100902.28;1780271;79;21719;-78
2022/10/13 10:56:37;;;;;;;9.08;2.65;;;;;;;17.17;39.53;100894.78;1777239;80;21192;-77
2022/10/13 10:59:54;;;;;;;9.40;2.65;;;;;;;16.99;40.13;100895.89;1776722;80;21192;-78
2022/10/13 11:03:16;;;;;;;6.67;2.10;;;;;;;16.79;40.00;100897.13;1775786;80;21877;-78
2022/10/13 11:06:29;;;;;;;9.75;2.25;;;;;;;16.50;40.58;100899.55;1776896;80;21256;-78
2022/10/13 11:09:52;;;;;;;5.80;2.30;;;;;;;16.55;40.18;100895.13;1777409;80;21204;-78
2022/10/13 11:13:04;;;;;;;8.58;2.92;;;;;;;16.50;40.15;100892.12;1750028;81;21874;-78
2022/10/13 11:16:07;;;;;;;13.13;2.75;;;;;;;16.65;40.38;100887.86;1770843;79;21237;-77
2022/10/13 11:19:44;;;;;;;8.75;2.20;;;;;;;16.86;41.62;100890.59;1760824;80;21176;-78
2022/10/13 11:23:06;;;;;;;8.85;2.95;;;;;;;17.00;41.20;100890.14;1776620;80;22561;-78
2022/10/13 11:26:39;;;;;;;6.37;2.40;;;;;;;17.19;40.41;100883.01;1769280;80;21142;-78
2022/10/13 11:29:56;;;;;;;10.48;2.45;;;;;;;17.31;39.89;100888.78;1755074;80;21810;-78
2022/10/13 11:33:08;;;;;;;11.20;3.33;;;;;;;17.34;40.11;100879.55;1780806;79;21145;-78
2022/10/13 11:36:50;;;;;;;6.97;2.60;;;;;;;17.48;40.27;100885.98;1778454;79;21248;-78
2022/10/13 11:40:23;;;;;;;13.45;2.72;;;;;;;17.36;40.24;100887.63;1772171;80;21546;-77
2022/10/13 11:43:52;;;;;;;7.10;2.50;;;;;;;17.18;40.75;100886.84;1786158;79;21744;-77
2022/10/13 11:47:17;;;;;;;9.23;2.40;;;;;;;16.95;40.95;100889.91;1775491;80;21736;-77
2022/10/13 11:50:35;;;;;;;8.28;2.62;;;;;;;16.81;40.07;100883.98;1787040;79;21163;-77
2022/10/13 11:54:22;;;;;;;10.55;2.45;;;;;;;16.63;39.53;100883.61;1778211;79;21177;-77
2022/10/13 11:57:35;;;;;;;10.40;2.22;;;;;;;16.49;39.47;100882.13;1771602;79;21230;-77
2022/10/13 12:00:40;;;;;;;7.03;2.52;;;;;;;16.48;40.02;100879.59;1769390;81;21185;-77
2022/10/13 12:03:50;;;;;;;6.70;2.20;;;;;;;16.44;40.29;100872.75;1795437;79;21153;-77
2022/10/13 12:07:04;;;;;;;9.38;2.47;;;;;;;16.49;40.17;100877.14;1771390;79;21212;-77
2022/10/13 12:10:11;;;;;;;7.12;2.35;;;;;;;16.48;40.09;100880.44;1738758;81;21169;-77
2022/10/13 12:13:33;;;;;;;6.37;2.00;;;;;;;16.48;40.68;100876.83;1761494;80;21190;-78
2022/10/13 12:16:39;;;;;;;4.50;1.90;;;;;;;16.60;39.77;100880.18;1734396;82;21273;-78
2022/10/13 12:19:47;;;;;;;7.87;2.45;;;;;;;16.52;39.51;100878.98;1787538;79;21228;-78
2022/10/13 12:22:56;;;;;;;6.45;2.27;;;;;;;16.50;39.55;100876.08;1768409;81;21538;-78
2022/10/13 12:26:05;;;;;;;7.95;2.08;;;;;;;16.49;39.40;100877.99;1777688;79;21786;-78
2022/10/13 12:29:11;;;;;;;17.23;6.33;;;;;;;16.46;39.28;100866.48;1773544;79;21165;-79
2022/10/13 12:32:32;;;;;;;25.45;8.03;;;;;;;16.31;39.82;100876.25;1770368;81;21193;-79
2022/10/13 12:35:40;;;;;;;9.35;3.45;;;;;;;16.26;39.81;100871.33;1769332;81;21712;-79
2022/10/13 12:38:38;;;;;;;17.00;5.47;;;;;;;16.18;39.60;100862.34;1769579;81;21150;-79
2022/10/13 12:41:39;;;;;;;13.13;4.65;;;;;;;16.24;39.92;100865.70;1772134;81;21204;-79
2022/10/13 12:44:45;;;;;;;5.28;2.02;;;;;;;16.17;39.79;100864.78;1770715;80;21163;-79
2022/10/13 12:47:55;;;;;;;11.60;2.90;;;;;;;16.14;38.09;100861.03;1767601;80;21180;-78
2022/10/13 12:51:00;;;;;;;10.47;2.53;;;;;;;16.27;38.21;100862.52;1769957;80;21743;-78
2022/10/13 12:54:11;;;;;;;30.17;9.05;;;;;;;16.06;38.12;100870.33;1768642;80;21174;-78
2022/10/13 12:57:39;;;;;;;12.82;3.80;;;;;;;16.25;38.31;100873.77;1769225;80;21355;-78
2022/10/13 13:00:45;;;;;;;38.73;13.20;;;;;;;16.27;38.91;100866.66;1759311;80;21176;-77
2022/10/13 13:03:52;;;;;;;9.93;2.40;;;;;;;16.25;39.32;100869.63;1769947;80;21165;-77
2022/10/13 13:07:10;;;;;;;8.80;2.35;;;;;;;16.29;38.85;100866.80;1742089;80;21196;-77
2022/10/13 13:10:25;;;;;;;15.10;5.50;;;;;;;16.23;39.38;100868.11;1761993;80;21434;-77
2022/10/13 13:13:31;;;;;;;23.70;9.08;;;;;;;16.27;40.32;100868.05;1763649;80;21169;-77
2022/10/13 13:16:37;;;;;;;14.20;4.33;;;;;;;16.34;40.22;100867.58;1769376;80;21173;-76
2022/10/13 13:19:45;;;;;;;8.15;2.70;;;;;;;16.40;40.67;100866.77;1743823;82;21243;-78
2022/10/13 13:22:52;;;;;;;10.70;3.20;;;;;;;16.34;40.80;100871.73;1743592;82;21326;-78
2022/10/13 13:26:20;;;;;;;12.18;3.20;;;;;;;16.22;41.78;100866.41;1755462;81;21400;-78
2022/10/13 13:29:26;;;;;;;5.55;2.62;;;;;;;16.26;41.75;100875.47;1743983;82;21240;-78
2022/10/13 13:32:33;;;;;;;7.05;2.30;;;;;;;16.20;41.73;100867.16;1744619;82;21200;-78
2022/10/13 13:35:39;;;;;;;8.33;2.58;;;;;;;16.03;41.92;100864.66;1745576;82;21173;-78
2022/10/13 13:38:45;;;;;;;9.50;3.08;;;;;;;16.05;42.10;100871.37;1745730;82;21192;-78
2022/10/13 13:41:52;;;;;;;8.18;2.45;;;;;;;16.07;42.28;100870.64;1754561;80;21232;-78
2022/10/13 13:44:59;;;;;;;8.35;2.77;;;;;;;15.98;42.29;100865.78;1762594;80;21272;-78
2022/10/13 13:48:05;;;;;;;10.30;2.90;;;;;;;15.99;42.04;100859.20;1785741;80;21775;-78
2022/10/13 13:51:05;;;;;;;6.37;2.55;;;;;;;16.01;41.91;100864.02;1774386;80;21173;-77
2022/10/13 13:54:12;;;;;;;9.10;2.35;;;;;;;15.98;42.02;100864.94;1782835;80;21420;-77
2022/10/13 13:57:19;;;;;;;10.95;2.77;;;;;;;15.90;41.73;100867.29;1773054;80;21380;-77
2022/10/13 14:00:26;;;;;;;10.40;3.40;;;;;;;15.77;41.67;100861.67;1763249;81;21185;-76
2022/10/13 14:03:32;;;;;;;21.93;11.22;;;;;;;15.79;41.65;100867.83;1768582;80;21172;-77
2022/10/13 14:06:37;;;;;;;10.88;5.87;;;;;;;15.45;42.93;100865.22;1766160;81;21181;-78
2022/10/13 14:09:44;;;;;;;8.25;3.10;;;;;;;15.51;43.22;100865.80;1765783;81;21205;-77
2022/10/13 14:12:51;;;;;;;10.05;2.37;;;;;;;15.55;43.54;100869.88;1764784;81;21248;-77
2022/10/13 14:16:06;;;;;;;8.80;2.80;;;;;;;15.50;43.89;100869.62;1767115;81;21157;-76
2022/10/13 14:19:13;;;;;;;6.53;2.67;;;;;;;15.50;43.79;100874.28;1763764;81;21189;-78
2022/10/13 14:22:19;;;;;;;7.05;2.75;;;;;;;15.12;44.34;100865.34;1764884;80;21185;-78
2022/10/13 14:25:19;;;;;;;12.68;3.15;;;;;;;14.86;44.68;100863.94;1767451;80;21142;-78
2022/10/13 14:28:12;;;;;;;5.25;2.72;;;;;;;14.87;44.75;100868.91;1790457;80;21201;-78
2022/10/13 14:31:18;;;;;;;7.62;2.85;;;;;;;14.83;44.81;100867.09;1792483;79;21213;-78
2022/10/13 14:34:23;;;;;;;20.37;3.65;;;;;;;14.87;44.60;100866.16;1774838;80;21151;-77
2022/10/13 14:37:30;;;;;;;10.90;3.77;;;;;;;14.85;44.55;100873.25;1785694;80;21154;-78